createdAt,value
2023-04-11T00:02:23.164Z,8.68
2023-04-11T00:04:55.025Z,8.95
2023-04-11T00:07:26.501Z,8.32
2023-04-11T00:09:55.381Z,7.95
2023-04-11T00:12:25.053Z,8.55
2023-04-11T00:14:55.513Z,8.30
2023-04-11T00:17:23.747Z,7.35
2023-04-11T00:19:53.322Z,8.52
2023-04-11T00:22:20.046Z,7.68
2023-04-11T00:24:46.578Z,7.80
2023-04-11T00:27:15.820Z,8.10
2023-04-11T00:32:11.389Z,8.00
2023-04-11T00:34:41.209Z,7.85
2023-04-11T00:37:10.481Z,7.13
2023-04-11T00:42:09.793Z,7.72
2023-04-11T00:44:36.722Z,8.52
2023-04-11T00:47:06.695Z,7.45
2023-04-11T00:49:36.614Z,7.75
2023-04-11T00:52:04.520Z,7.38
2023-04-11T00:54:31.536Z,8.32
2023-04-11T00:57:02.125Z,8.32
2023-04-11T00:59:29.971Z,7.13
2023-04-11T01:01:57.710Z,7.63
2023-04-11T01:04:26.186Z,8.23
2023-04-11T01:06:56.746Z,8.68
2023-04-11T01:09:31.106Z,8.05
2023-04-11T01:12:03.081Z,8.18
2023-04-11T01:14:30.246Z,9.05
2023-04-11T01:16:57.568Z,8.13
2023-04-11T01:19:29.642Z,7.97
2023-04-11T01:21:57.960Z,8.52
2023-04-11T01:24:25.349Z,7.75
2023-04-11T01:26:52.294Z,7.18
2023-04-11T01:29:21.214Z,8.07
2023-04-11T01:31:48.163Z,8.77
2023-04-11T01:34:15.884Z,9.27
2023-04-11T01:36:42.841Z,9.23
2023-04-11T01:39:12.166Z,8.80
2023-04-11T01:41:39.651Z,7.40
2023-04-11T01:44:06.474Z,7.88
2023-04-11T01:46:36.076Z,8.02
2023-04-11T01:49:03.499Z,8.45
2023-04-11T01:51:30.503Z,7.40
2023-04-11T01:53:59.338Z,7.75
2023-04-11T01:56:26.082Z,8.48
2023-04-11T01:58:59.035Z,7.47
2023-04-11T02:01:25.787Z,8.73
2023-04-11T02:03:55.627Z,7.38
2023-04-11T02:06:22.345Z,8.70
2023-04-11T02:08:48.983Z,8.60
2023-04-11T02:11:15.563Z,8.63
2023-04-11T02:13:45.958Z,8.48
2023-04-11T02:16:15.568Z,8.15
2023-04-11T02:18:45.842Z,8.38
2023-04-11T02:21:15.291Z,7.55
2023-04-11T02:23:41.860Z,7.38
2023-04-11T02:26:10.787Z,7.20
2023-04-11T02:28:37.659Z,7.57
2023-04-11T02:31:04.600Z,7.15
2023-04-11T02:33:31.273Z,6.65
2023-04-11T02:36:00.316Z,7.70
2023-04-11T02:38:29.862Z,6.93
2023-04-11T02:40:59.535Z,7.45
2023-04-11T02:43:26.600Z,7.35
2023-04-11T02:45:59.243Z,7.40
2023-04-11T02:48:35.218Z,6.35
2023-04-11T02:51:04.557Z,6.38
2023-04-11T02:53:31.126Z,6.80
2023-04-11T02:55:57.676Z,7.30
2023-04-11T02:58:28.882Z,6.50
2023-04-11T03:00:58.036Z,7.05
2023-04-11T03:05:53.808Z,7.22
2023-04-11T03:08:25.824Z,7.05
2023-04-11T03:10:52.484Z,6.20
2023-04-11T03:13:21.573Z,6.00
2023-04-11T03:15:48.325Z,7.05
2023-04-11T03:18:18.220Z,5.30
2023-04-11T03:20:45.087Z,5.35
2023-04-11T03:23:14.372Z,6.07
2023-04-11T03:25:44.788Z,6.10
2023-04-11T03:28:14.269Z,5.25
2023-04-11T03:30:42.585Z,5.15
2023-04-11T03:33:09.327Z,6.57
2023-04-11T03:35:36.865Z,6.28
2023-04-11T03:38:05.992Z,5.47
2023-04-11T03:40:32.807Z,5.97
2023-04-11T03:43:04.436Z,5.75
2023-04-11T03:45:33.962Z,5.72
2023-04-11T03:48:00.639Z,5.38
2023-04-11T03:50:28.087Z,5.53
2023-04-11T03:52:54.676Z,5.07
2023-04-11T03:55:23.865Z,4.63
2023-04-11T04:00:19.024Z,4.13
2023-04-11T04:02:48.029Z,5.65
2023-04-11T04:05:19.452Z,5.32
2023-04-11T04:07:48.817Z,4.95
2023-04-11T04:10:17.772Z,5.43
2023-04-11T04:12:44.426Z,6.13
2023-04-11T04:15:11.569Z,6.88
2023-04-11T04:17:38.343Z,6.55
2023-04-11T04:20:06.617Z,6.05
2023-04-11T04:22:34.082Z,6.40
2023-04-11T04:25:03.010Z,6.78
2023-04-11T04:27:29.687Z,6.00
2023-04-11T04:30:01.158Z,6.80
2023-04-11T04:32:31.213Z,6.70
2023-04-11T04:35:05.058Z,6.78
2023-04-11T04:37:31.747Z,5.85
2023-04-11T04:40:08.131Z,6.15
2023-04-11T04:42:36.561Z,6.53
2023-04-11T04:45:06.132Z,6.65
2023-04-11T04:47:33.987Z,6.05
2023-04-11T04:50:03.859Z,6.90
2023-04-11T04:52:30.811Z,7.47
2023-04-11T04:54:58.303Z,6.40
2023-04-11T04:57:27.803Z,7.43
2023-04-11T04:59:57.912Z,6.13
2023-04-11T05:02:29.259Z,6.68
2023-04-11T05:05:04.078Z,6.05
2023-04-11T05:07:30.879Z,7.72
2023-04-11T05:10:02.640Z,6.95
2023-04-11T05:12:31.700Z,6.93
2023-04-11T05:15:15.179Z,7.80
2023-04-11T05:17:42.962Z,6.82
2023-04-11T05:20:10.306Z,7.13
2023-04-11T05:22:39.422Z,6.45
2023-04-11T05:25:09.260Z,7.45
2023-04-11T05:27:38.320Z,7.82
2023-04-11T05:30:06.340Z,8.63
2023-04-11T05:32:33.430Z,8.38
2023-04-11T05:35:05.212Z,7.30
2023-04-11T05:37:32.370Z,8.48
2023-04-11T05:40:01.419Z,7.60
2023-04-11T05:42:30.292Z,8.65
2023-04-11T05:44:56.870Z,7.85
2023-04-11T05:47:23.794Z,8.80
2023-04-11T05:49:50.361Z,8.75
2023-04-11T05:52:16.942Z,9.63
2023-04-11T05:54:47.150Z,8.80
2023-04-11T05:57:13.786Z,8.10
2023-04-11T05:59:42.658Z,9.60
2023-04-11T06:02:09.289Z,9.30
2023-04-11T06:04:36.227Z,9.60
2023-04-11T06:07:05.529Z,8.88
2023-04-11T06:12:01.934Z,8.20
2023-04-11T06:14:28.614Z,8.20
2023-04-11T06:16:57.723Z,9.30
2023-04-11T06:19:24.272Z,11.20
2023-04-11T06:21:53.017Z,9.27
2023-04-11T06:27:10.888Z,9.40
2023-04-11T06:29:44.972Z,9.68
2023-04-11T06:32:12.451Z,9.55
2023-04-11T06:34:39.633Z,10.60
2023-04-11T06:37:09.690Z,9.60
2023-04-11T06:39:36.733Z,9.70
2023-04-11T06:42:05.981Z,9.30
2023-04-11T06:44:35.270Z,9.32
2023-04-11T06:47:04.537Z,9.10
2023-04-11T06:49:31.394Z,9.02
2023-04-11T06:51:59.469Z,9.13
2023-04-11T06:54:31.371Z,8.25
2023-04-11T06:56:58.776Z,7.70
2023-04-11T06:59:30.276Z,7.82
2023-04-11T07:01:59.627Z,8.57
2023-04-11T07:04:26.307Z,6.82
2023-04-11T07:09:19.632Z,6.75
2023-04-11T07:11:46.328Z,7.15
2023-04-11T07:14:12.992Z,6.28
2023-04-11T07:16:40.159Z,6.20
2023-04-11T07:19:08.967Z,6.97
2023-04-11T07:21:40.682Z,7.15
2023-04-11T07:24:11.210Z,7.20
2023-04-11T07:26:38.626Z,8.05
2023-04-11T07:29:09.149Z,7.63
2023-04-11T07:31:39.797Z,9.02
2023-04-11T07:34:07.308Z,9.05
2023-04-11T07:36:36.725Z,7.63
2023-04-11T07:39:09.310Z,7.72
2023-04-11T07:41:39.582Z,6.18
2023-04-11T07:44:09.549Z,7.60
2023-04-11T07:46:36.276Z,7.25
2023-04-11T07:49:05.190Z,7.50
2023-04-11T07:51:32.448Z,7.85
2023-04-11T07:53:59.046Z,7.90
2023-04-11T07:56:27.958Z,7.97
2023-04-11T07:58:57.189Z,8.05
2023-04-11T08:01:25.954Z,7.75
2023-04-11T08:03:56.466Z,7.00
2023-04-11T08:06:23.717Z,7.57
2023-04-11T08:08:51.005Z,7.03
2023-04-11T08:11:17.739Z,6.78
2023-04-11T08:13:46.665Z,5.35
2023-04-11T08:16:15.626Z,5.10
2023-04-11T08:18:48.122Z,5.47
2023-04-11T08:21:14.702Z,6.00
2023-04-11T08:23:43.629Z,5.93
2023-04-11T08:26:11.971Z,5.93
2023-04-11T08:28:43.700Z,5.63
2023-04-11T08:31:13.429Z,5.65
2023-04-11T08:33:40.478Z,6.10
2023-04-11T08:36:10.664Z,5.65
2023-04-11T08:38:38.675Z,5.43
2023-04-11T08:41:06.050Z,4.57
2023-04-11T08:43:35.798Z,5.80
2023-04-11T08:46:05.994Z,6.07
2023-04-11T08:48:38.703Z,5.32
2023-04-11T08:51:06.436Z,6.10
2023-04-11T08:53:39.158Z,6.10
2023-04-11T08:56:06.524Z,6.15
2023-04-11T08:58:35.327Z,6.55
2023-04-11T09:01:27.485Z,6.55
2023-04-11T09:03:55.057Z,6.68
2023-04-11T09:06:22.117Z,6.47
2023-04-11T09:08:49.252Z,6.00
2023-04-11T09:11:20.817Z,6.07
2023-04-11T09:13:48.625Z,7.13
2023-04-11T09:16:16.307Z,6.43
2023-04-11T09:18:47.192Z,7.00
2023-04-11T09:21:17.130Z,6.72
2023-04-11T09:23:43.913Z,6.47
2023-04-11T09:26:24.950Z,6.57
2023-04-11T09:28:54.504Z,7.10
2023-04-11T09:31:41.818Z,6.75
2023-04-11T09:34:09.217Z,6.50
2023-04-11T09:36:38.885Z,7.60
2023-04-11T09:39:18.898Z,7.30
2023-04-11T09:41:46.222Z,7.45
2023-04-11T09:44:13.494Z,6.85
2023-04-11T09:47:00.102Z,7.43
2023-04-11T09:49:29.904Z,7.03
2023-04-11T09:51:57.889Z,6.90
2023-04-11T09:54:27.619Z,6.93
2023-04-11T09:56:54.359Z,6.70
2023-04-11T09:59:21.804Z,6.75
2023-04-11T10:01:51.612Z,6.07
2023-04-11T10:04:21.091Z,6.13
2023-04-11T10:07:03.884Z,6.80
2023-04-11T10:09:33.828Z,6.35
2023-04-11T10:12:00.533Z,6.78
2023-04-11T10:14:41.793Z,6.30
2023-04-11T10:17:22.889Z,6.47
2023-04-11T10:19:58.963Z,7.20
2023-04-11T10:25:24.889Z,7.22
2023-04-11T10:28:02.024Z,7.55
2023-04-11T10:30:41.039Z,7.60
2023-04-11T10:33:21.089Z,8.63
2023-04-11T10:36:13.934Z,7.28
2023-04-11T10:38:43.488Z,7.85
2023-04-11T10:41:29.442Z,7.18
2023-04-11T10:44:21.210Z,6.88
2023-04-11T10:46:55.075Z,7.75
2023-04-11T10:49:38.630Z,6.88
2023-04-11T10:52:24.402Z,7.40
2023-04-11T10:54:53.333Z,7.10
2023-04-11T10:59:49.969Z,6.68
2023-04-11T11:02:20.284Z,8.38
2023-04-11T11:04:49.502Z,8.10
2023-04-11T11:07:17.406Z,8.00
2023-04-11T11:09:52.558Z,7.85
2023-04-11T11:14:50.398Z,7.05
2023-04-11T11:17:19.820Z,5.78
2023-04-11T11:19:48.177Z,6.93
2023-04-11T11:22:28.139Z,7.22
2023-04-11T11:24:55.208Z,6.65
2023-04-11T11:27:23.548Z,6.60
2023-04-11T11:29:53.424Z,6.07
2023-04-11T11:32:28.189Z,6.22
2023-04-11T11:34:55.609Z,6.47
2023-04-11T11:37:23.321Z,6.18
2023-04-11T11:39:50.820Z,6.88
2023-04-11T11:42:18.131Z,6.43
2023-04-11T11:44:47.139Z,6.53
2023-04-11T11:47:19.512Z,5.93
2023-04-11T11:49:56.172Z,5.82
2023-04-11T11:52:40.763Z,6.32
2023-04-11T11:55:19.763Z,5.68
2023-04-11T11:57:52.565Z,6.35
2023-04-11T12:00:27.150Z,6.00
2023-04-11T12:02:56.211Z,5.32
2023-04-11T12:05:30.832Z,5.93
2023-04-11T12:08:01.379Z,5.25
2023-04-11T12:10:42.863Z,5.63
2023-04-11T12:13:17.011Z,5.13
2023-04-11T12:15:49.256Z,7.22
2023-04-11T12:18:16.145Z,6.15
2023-04-11T12:20:42.844Z,6.45
2023-04-11T12:23:09.559Z,7.05
2023-04-11T12:25:36.217Z,6.07
2023-04-11T12:28:05.062Z,6.15
2023-04-11T12:32:58.341Z,4.93
2023-04-11T12:35:27.492Z,6.03
2023-04-11T12:37:54.151Z,5.65
2023-04-11T12:40:20.856Z,5.28
2023-04-11T12:42:56.841Z,5.57
2023-04-11T12:45:27.161Z,5.43
2023-04-11T12:47:54.057Z,5.30
2023-04-11T12:50:24.052Z,4.93
2023-04-11T12:52:51.659Z,5.65
2023-04-11T12:55:21.876Z,7.18
2023-04-11T12:57:48.623Z,5.35
2023-04-11T13:00:18.202Z,5.05
2023-04-11T13:02:45.731Z,5.40
2023-04-11T13:05:15.659Z,5.53
2023-04-11T13:07:45.191Z,4.60
2023-04-11T13:10:17.117Z,4.18
2023-04-11T13:12:48.533Z,4.80
2023-04-11T13:15:17.031Z,5.28
2023-04-11T13:17:43.893Z,4.85
2023-04-11T13:20:11.640Z,5.40
2023-04-11T13:22:42.808Z,6.25
2023-04-11T13:25:13.278Z,5.13
2023-04-11T13:27:41.643Z,3.95
2023-04-11T13:30:10.712Z,5.03
2023-04-11T13:35:04.351Z,4.18
2023-04-11T13:37:31.112Z,3.97
2023-04-11T13:39:59.967Z,3.83
2023-04-11T13:45:00.298Z,3.80
2023-04-11T13:47:26.930Z,3.88
2023-04-11T13:49:55.907Z,4.38
2023-04-11T13:54:52.253Z,4.15
2023-04-11T13:57:22.189Z,3.90
2023-04-11T13:59:49.223Z,3.75
2023-04-11T14:02:18.916Z,3.92
2023-04-11T14:04:45.478Z,3.72
2023-04-11T14:07:15.347Z,3.80
2023-04-11T14:09:42.063Z,4.32
2023-04-11T14:12:11.327Z,3.67
2023-04-11T14:14:38.384Z,2.50
2023-04-11T14:17:05.178Z,2.80
2023-04-11T14:19:31.806Z,3.15
2023-04-11T14:21:58.451Z,3.00
2023-04-11T14:24:27.576Z,2.60
2023-04-11T14:26:56.887Z,2.90
2023-04-11T14:29:31.481Z,2.90
2023-04-11T14:32:03.137Z,2.53
2023-04-11T14:34:29.726Z,2.90
2023-04-11T14:36:56.401Z,2.83
2023-04-11T14:39:23.545Z,2.65
2023-04-11T14:41:54.926Z,2.30
2023-04-11T14:44:21.509Z,2.70
2023-04-11T14:46:48.471Z,2.40
2023-04-11T14:49:15.101Z,3.00
2023-04-11T14:51:41.727Z,3.25
2023-04-11T14:54:10.507Z,3.03
2023-04-11T14:56:40.092Z,2.60
2023-04-11T14:59:07.438Z,2.63
2023-04-11T15:01:33.985Z,2.80
2023-04-11T15:04:01.538Z,2.25
2023-04-11T15:06:31.830Z,2.55
2023-04-11T15:09:02.732Z,3.45
2023-04-11T15:11:32.140Z,3.60
2023-04-11T15:13:58.916Z,4.00
2023-04-11T15:16:25.689Z,3.67
2023-04-11T15:18:52.412Z,3.78
2023-04-11T15:21:19.042Z,3.88
2023-04-11T15:23:45.757Z,3.45
2023-04-11T15:26:12.341Z,3.42
2023-04-11T15:28:39.606Z,2.30
2023-04-11T15:31:09.455Z,2.15
2023-04-11T15:33:37.124Z,1.90
2023-04-11T15:36:04.875Z,1.73
2023-04-11T15:38:38.453Z,1.65
2023-04-11T15:41:05.773Z,1.83
2023-04-11T15:43:34.777Z,1.60
2023-04-11T15:46:04.327Z,1.25
2023-04-11T15:48:31.472Z,1.95
2023-04-11T15:51:00.354Z,1.77
2023-04-11T15:53:29.948Z,1.70
2023-04-11T15:55:56.592Z,1.60
2023-04-11T15:58:23.254Z,1.70
2023-04-11T16:00:54.956Z,1.65
2023-04-11T16:03:23.063Z,1.98
2023-04-11T16:05:52.948Z,1.63
2023-04-11T16:08:21.947Z,1.73
2023-04-11T16:10:51.490Z,2.05
2023-04-11T16:13:18.252Z,1.70
2023-04-11T16:15:47.114Z,1.65
2023-04-11T16:18:13.869Z,1.92
2023-04-11T16:20:40.464Z,1.60
2023-04-11T16:23:09.374Z,1.20
2023-04-11T16:25:40.860Z,1.13
2023-04-11T16:28:09.814Z,1.20
2023-04-11T16:30:39.751Z,1.30
2023-04-11T16:33:08.931Z,1.10
2023-04-11T16:35:36.198Z,1.23
2023-04-11T16:38:06.009Z,1.27
2023-04-11T16:40:33.970Z,1.13
2023-04-11T16:43:00.729Z,1.23
2023-04-11T16:45:27.297Z,1.40
2023-04-11T16:47:56.464Z,1.27
2023-04-11T16:50:23.351Z,1.48
2023-04-11T16:52:52.273Z,1.83
2023-04-11T16:55:19.143Z,1.80
2023-04-11T16:57:45.777Z,1.58
2023-04-11T17:00:19.750Z,2.00
2023-04-11T17:02:49.156Z,1.70
2023-04-11T17:05:19.206Z,2.15
2023-04-11T17:07:46.328Z,1.50
2023-04-11T17:10:13.001Z,2.00
2023-04-11T17:12:39.771Z,1.90
2023-04-11T17:15:09.121Z,1.85
2023-04-11T17:17:35.943Z,2.03
2023-04-11T17:20:09.264Z,1.90
2023-04-11T17:22:37.118Z,2.10
2023-04-11T17:25:04.272Z,2.40
2023-04-11T17:27:33.283Z,2.53
2023-04-11T17:32:27.225Z,2.15
2023-04-11T17:35:12.580Z,2.25
2023-04-11T17:37:39.745Z,2.38
2023-04-11T17:40:13.031Z,2.72
2023-04-11T17:42:40.404Z,3.28
2023-04-11T17:47:43.076Z,3.13
2023-04-11T17:50:12.751Z,3.85
2023-04-11T17:52:42.065Z,3.60
2023-04-11T17:55:15.306Z,3.72
2023-04-11T17:57:45.071Z,3.92
2023-04-11T18:00:17.589Z,3.83
2023-04-11T18:02:48.723Z,4.75
2023-04-11T18:05:23.997Z,4.20
2023-04-11T18:07:54.765Z,3.92
2023-04-11T18:10:27.885Z,4.38
2023-04-11T18:12:58.174Z,4.72
2023-04-11T18:15:28.062Z,4.15
2023-04-11T18:17:55.124Z,4.35
2023-04-11T18:20:21.911Z,4.55
2023-04-11T18:22:56.366Z,4.20
2023-04-11T18:25:25.823Z,3.78
2023-04-11T18:27:52.457Z,4.18
2023-04-11T18:30:21.259Z,3.70
2023-04-11T18:32:51.776Z,4.10
2023-04-11T18:35:21.337Z,3.78
2023-04-11T18:37:50.176Z,3.05
2023-04-11T18:40:17.452Z,3.30
2023-04-11T18:42:51.097Z,3.72
2023-04-11T18:45:20.524Z,3.70
2023-04-11T18:47:49.591Z,4.35
2023-04-11T18:52:51.472Z,3.90
2023-04-11T18:55:22.492Z,3.60
2023-04-11T18:57:50.824Z,3.50
2023-04-11T19:00:20.403Z,3.47
2023-04-11T19:02:51.165Z,2.92
2023-04-11T19:05:19.303Z,3.05
2023-04-11T19:07:46.066Z,2.97
2023-04-11T19:10:12.783Z,2.88
2023-04-11T19:12:42.024Z,3.13
2023-04-11T19:15:11.630Z,3.00
2023-04-11T19:17:38.844Z,2.78
2023-04-11T19:20:26.618Z,3.72
2023-04-11T19:22:53.230Z,3.03
2023-04-11T19:25:19.973Z,2.83
2023-04-11T19:27:48.999Z,3.50
2023-04-11T19:30:18.117Z,2.58
2023-04-11T19:32:47.756Z,2.55
2023-04-11T19:35:17.154Z,2.78
2023-04-11T19:37:43.739Z,2.88
2023-04-11T19:40:11.237Z,3.13
2023-04-11T19:42:43.136Z,3.03
2023-04-11T19:45:12.751Z,2.53
2023-04-11T19:47:42.097Z,2.60
2023-04-11T19:50:18.487Z,2.50
2023-04-11T19:52:45.070Z,1.88
2023-04-11T19:55:16.015Z,1.88
2023-04-11T19:57:43.901Z,1.80
2023-04-11T20:00:14.338Z,2.42
2023-04-11T20:02:46.124Z,2.17
2023-04-11T20:05:21.666Z,2.22
2023-04-11T20:10:18.197Z,2.13
2023-04-11T20:12:44.879Z,2.40
2023-04-11T20:15:12.398Z,2.30
2023-04-11T20:17:39.110Z,2.20
2023-04-11T20:20:09.050Z,2.42
2023-04-11T20:22:38.371Z,1.67
2023-04-11T20:25:07.372Z,2.30
2023-04-11T20:27:41.357Z,1.85
2023-04-11T20:30:11.043Z,1.55
2023-04-11T20:32:40.930Z,2.28
2023-04-11T20:35:14.181Z,1.88
2023-04-11T20:37:43.554Z,1.60
2023-04-11T20:40:11.142Z,1.60
2023-04-11T20:42:46.034Z,1.40
2023-04-11T20:45:15.709Z,0.70
2023-04-11T20:47:46.128Z,0.90
2023-04-11T20:50:14.501Z,0.70
2023-04-11T20:52:42.437Z,0.90
2023-04-11T20:55:10.747Z,0.75
2023-04-11T20:57:37.659Z,0.80
2023-04-11T21:00:17.522Z,0.70
2023-04-11T21:02:50.372Z,0.65
2023-04-11T21:05:18.768Z,0.80
2023-04-11T21:07:46.140Z,0.80
2023-04-11T21:10:15.680Z,0.60
2023-04-11T21:12:43.043Z,0.63
2023-04-11T21:15:12.124Z,0.80
2023-04-11T21:17:39.629Z,0.60
2023-04-11T21:20:17.455Z,0.50
2023-04-11T21:22:44.633Z,0.68
2023-04-11T21:25:11.172Z,0.65
2023-04-11T21:27:40.995Z,0.60
2023-04-11T21:30:09.108Z,0.77
2023-04-11T21:32:43.582Z,0.68
2023-04-11T21:35:13.769Z,1.02
2023-04-11T21:37:42.621Z,0.70
2023-04-11T21:40:09.569Z,1.20
2023-04-11T21:42:36.397Z,0.93
2023-04-11T21:45:08.719Z,0.75
2023-04-11T21:47:35.551Z,1.05
2023-04-11T21:50:04.653Z,0.50
2023-04-11T21:52:31.200Z,0.70
2023-04-11T21:54:57.781Z,0.88
2023-04-11T21:57:24.324Z,0.77
2023-04-11T21:59:51.018Z,0.80
2023-04-11T22:02:17.776Z,0.90
2023-04-11T22:05:05.100Z,0.65
2023-04-11T22:07:48.271Z,0.93
2023-04-11T22:12:45.834Z,0.93
2023-04-11T22:15:18.226Z,1.48
2023-04-11T22:17:50.405Z,1.42
2023-04-11T22:20:18.174Z,1.30
2023-04-11T22:22:47.486Z,1.20
2023-04-11T22:25:18.185Z,1.23
2023-04-11T22:27:44.763Z,1.00
2023-04-11T22:30:14.223Z,1.23
2023-04-11T22:32:43.309Z,1.48
2023-04-11T22:35:13.656Z,1.40
2023-04-11T22:37:42.682Z,1.27
2023-04-11T22:40:13.230Z,1.52
2023-04-11T22:42:40.404Z,1.45
2023-04-11T22:45:09.784Z,1.20
2023-04-11T22:47:38.045Z,0.93
2023-04-11T22:50:07.804Z,1.00
2023-04-11T22:52:38.292Z,1.25
2023-04-11T22:55:05.584Z,0.85
2023-04-11T22:57:35.241Z,1.00
2023-04-11T23:00:07.129Z,0.88
2023-04-11T23:02:35.890Z,1.20
2023-04-11T23:05:05.608Z,1.00
2023-04-11T23:07:32.999Z,0.90
2023-04-11T23:10:05.661Z,1.00
2023-04-11T23:12:32.695Z,0.88
2023-04-11T23:15:02.592Z,0.82
2023-04-11T23:17:29.479Z,0.70
2023-04-11T23:19:59.591Z,0.90
2023-04-11T23:22:26.728Z,0.80
2023-04-11T23:24:56.098Z,1.17
2023-04-11T23:27:23.551Z,0.77
2023-04-11T23:29:52.659Z,1.05
2023-04-11T23:32:22.837Z,1.02
2023-04-11T23:34:52.609Z,0.90
2023-04-11T23:37:19.475Z,1.08
2023-04-11T23:39:46.235Z,1.30
2023-04-11T23:42:15.091Z,0.90
2023-04-11T23:44:41.653Z,0.90
2023-04-11T23:47:12.909Z,1.60
2023-04-11T23:49:39.470Z,1.08
2023-04-11T23:52:06.069Z,1.05
2023-04-11T23:54:32.599Z,1.02
2023-04-11T23:56:59.176Z,1.20
2023-04-11T23:59:25.752Z,1.20
